Terminal Aerodrome Forecast
Issued by NWS North Platte, NE

Home | Current Version | Previous Version | Graphics & Text | Print | Product List | Glossary On
Versions: 1 2 3 4 5 6 7 8 9 10 11 12 13 14 15 16 17 18 19 20 21
866
FTUS43 KLBF 220413 AAA
TAFVTN
TAF AMD
KVTN 220413Z 2204/2224 35008KT P6SM BKN012 OVC025
     FM220600 01008KT P6SM OVC015
     FM220900 01009KT 4SM BR OVC007
      TEMPO 2211/2214 1SM BR
     FM221500 03009KT P6SM OVC007=

USA.gov is the U.S. government's official web portal to all federal, state and local government web resources and services.